Time;durP1;ratioP1;P1;durP2;ratioP2;P2;SDS_P1;SDS_P2;PMS_P1;PMS_P2;Temp;Humidity;BMP_temperature;BMP_pressure;BME280_temperature;BME280_humidity;BME280_pressure;Samples;Min_cycle;Max_cycle;Signal;HPM_P1;HPM_P2
2024/04/16 00:02:07;;;;;;;11.52;1.30;;;;;;;;;;5360766;26;20008;-58
2024/04/16 00:04:36;;;;;;;12.77;1.65;;;;;;;;;;5369154;26;20004;-59
2024/04/16 00:07:01;;;;;;;4.57;0.88;;;;;;;;;;5374263;26;19997;-60
2024/04/16 00:09:32;;;;;;;4.28;0.90;;;;;;;;;;5375810;26;20010;-59
2024/04/16 00:11:59;;;;;;;8.02;1.40;;;;;;;;;;5375901;26;20011;-60
2024/04/16 00:14:27;;;;;;;7.60;1.13;;;;;;;;;;5375386;26;20039;-60
2024/04/16 00:16:53;;;;;;;7.45;1.10;;;;;;;;;;5362903;26;20004;-60
2024/04/16 00:19:22;;;;;;;6.82;0.98;;;;;;;;;;5411097;26;19999;-63
2024/04/16 00:21:47;;;;;;;11.15;1.40;;;;;;;;;;5368147;26;20004;-62
2024/04/16 00:24:16;;;;;;;4.68;0.88;;;;;;;;;;5368967;26;20019;-63
2024/04/16 00:26:44;;;;;;;7.85;1.05;;;;;;;;;;5364584;26;20004;-62
2024/04/16 00:29:13;;;;;;;9.60;0.95;;;;;;;;;;5388515;26;20349;-62
2024/04/16 00:31:38;;;;;;;3.35;0.65;;;;;;;;;;5395496;26;20010;-63
2024/04/16 00:34:07;;;;;;;12.32;1.20;;;;;;;;;;5362898;26;20005;-63
2024/04/16 00:36:33;;;;;;;9.93;1.25;;;;;;;;;;5377958;26;19995;-61
2024/04/16 00:39:01;;;;;;;4.35;0.68;;;;;;;;;;5380855;26;20007;-63
2024/04/16 00:41:27;;;;;;;3.05;0.82;;;;;;;;;;5363721;26;20073;-62
2024/04/16 00:43:58;;;;;;;7.82;0.85;;;;;;;;;;5372418;26;20019;-62
2024/04/16 00:46:24;;;;;;;5.25;0.85;;;;;;;;;;5379963;26;20179;-62
2024/04/16 00:48:53;;;;;;;6.93;0.73;;;;;;;;;;5366398;26;20016;-62
2024/04/16 00:51:18;;;;;;;;;;;;;;;;;;5378004;26;20000;-62
2024/04/16 00:53:47;;;;;;;4.93;1.10;;;;;;;;;;5385115;26;19975;-62
2024/04/16 00:56:13;;;;;;;5.47;1.23;;;;;;;;;;5375786;26;20048;-61
2024/04/16 00:58:42;;;;;;;8.23;1.02;;;;;;;;;;5382719;26;20098;-59
2024/04/16 01:01:10;;;;;;;10.77;1.40;;;;;;;;;;5377759;26;20024;-58
2024/04/16 01:03:42;;;;;;;6.10;1.00;;;;;;;;;;5384575;26;20003;-59
2024/04/16 01:06:08;;;;;;;5.95;0.70;;;;;;;;;;5373324;26;20001;-62
2024/04/16 01:08:37;;;;;;;4.85;0.82;;;;;;;;;;5386806;26;20004;-62
2024/04/16 01:11:03;;;;;;;8.95;1.42;;;;;;;;;;5394216;26;19995;-61
2024/04/16 01:13:31;;;;;;;4.03;0.90;;;;;;;;;;5376393;26;20054;-62
2024/04/16 01:15:57;;;;;;;5.80;1.13;;;;;;;;;;5354985;26;19999;-61
2024/04/16 01:18:28;;;;;;;2.80;0.68;;;;;;;;;;5374624;26;20019;-62
2024/04/16 01:20:53;;;;;;;7.22;1.40;;;;;;;;;;5373447;26;20003;-63
2024/04/16 01:23:24;;;;;;;3.30;0.88;;;;;;;;;;5381597;26;20019;-61
2024/04/16 01:25:50;;;;;;;7.25;1.33;;;;;;;;;;5376330;26;20023;-62
2024/04/16 01:28:18;;;;;;;3.10;0.65;;;;;;;;;;5361134;26;20082;-63
2024/04/16 01:30:43;;;;;;;10.02;1.17;;;;;;;;;;5372806;26;20020;-62
2024/04/16 01:33:12;;;;;;;2.30;0.80;;;;;;;;;;5374451;26;20023;-63
2024/04/16 01:35:38;;;;;;;4.88;0.90;;;;;;;;;;5368493;26;20009;-59
2024/04/16 01:38:06;;;;;;;2.75;0.57;;;;;;;;;;5360912;26;20041;-62
2024/04/16 01:40:34;;;;;;;;;;;;;;;;;;5400512;26;20015;-62
2024/04/16 01:43:03;;;;;;;3.63;0.70;;;;;;;;;;5372587;26;19940;-63
2024/04/16 01:45:28;;;;;;;2.13;0.70;;;;;;;;;;5397273;26;20007;-62
2024/04/16 01:47:57;;;;;;;5.40;0.63;;;;;;;;;;5366057;26;20011;-61
2024/04/16 01:50:24;;;;;;;5.13;0.70;;;;;;;;;;5379561;26;20155;-61
2024/04/16 01:52:52;;;;;;;1.40;0.40;;;;;;;;;;5382193;26;20013;-60
2024/04/16 01:55:18;;;;;;;3.30;0.65;;;;;;;;;;5373318;26;20122;-61
2024/04/16 01:57:52;;;;;;;1.17;0.50;;;;;;;;;;5346106;26;20411;-60
2024/04/16 02:00:17;;;;;;;4.07;0.60;;;;;;;;;;5373381;26;20048;-60
2024/04/16 02:02:46;;;;;;;3.53;0.88;;;;;;;;;;5371671;26;20081;-60
2024/04/16 02:05:11;;;;;;;4.13;0.55;;;;;;;;;;5329208;26;20019;-61
2024/04/16 02:07:40;;;;;;;5.28;0.82;;;;;;;;;;5339305;26;20044;-61
2024/04/16 02:10:10;;;;;;;4.20;0.60;;;;;;;;;;5338456;26;20020;-61
2024/04/16 02:12:38;;;;;;;5.57;0.90;;;;;;;;;;5339580;26;20008;-60
2024/04/16 02:15:07;;;;;;;1.63;0.70;;;;;;;;;;5360425;26;20036;-60
2024/04/16 02:17:35;;;;;;;2.67;0.70;;;;;;;;;;5375455;26;19995;-58
2024/04/16 02:20:01;;;;;;;5.22;0.60;;;;;;;;;;5366519;26;20004;-61
2024/04/16 02:22:29;;;;;;;3.83;0.68;;;;;;;;;;5369394;26;20064;-58
2024/04/16 02:24:55;;;;;;;1.85;0.52;;;;;;;;;;5363116;26;20016;-60
2024/04/16 02:27:23;;;;;;;4.47;0.40;;;;;;;;;;5364809;26;20023;-58
2024/04/16 02:29:55;;;;;;;2.25;0.35;;;;;;;;;;5371661;26;20157;-59
2024/04/16 02:32:26;;;;;;;1.77;0.43;;;;;;;;;;5393630;26;20041;-59
2024/04/16 02:34:51;;;;;;;0.95;0.30;;;;;;;;;;5388649;26;20042;-59
2024/04/16 02:37:19;;;;;;;1.90;0.45;;;;;;;;;;5386371;26;20020;-59
2024/04/16 02:39:45;;;;;;;0.25;0.20;;;;;;;;;;5360236;26;20066;-58
2024/04/16 02:42:13;;;;;;;2.75;0.50;;;;;;;;;;5382382;26;20027;-57
2024/04/16 02:44:39;;;;;;;1.00;0.20;;;;;;;;;;5373675;26;20074;-60
2024/04/16 02:47:07;;;;;;;2.15;0.55;;;;;;;;;;5380336;26;20015;-60
2024/04/16 02:49:36;;;;;;;0.70;0.40;;;;;;;;;;5389055;26;20088;-59
2024/04/16 02:52:04;;;;;;;0.20;0.20;;;;;;;;;;5390932;26;20000;-59
2024/04/16 02:54:29;;;;;;;0.35;0.20;;;;;;;;;;5382965;26;20023;-59
2024/04/16 02:56:57;;;;;;;1.33;0.30;;;;;;;;;;5382367;26;20094;-62
2024/04/16 02:59:23;;;;;;;0.45;0.30;;;;;;;;;;5381980;26;20040;-62
2024/04/16 03:01:51;;;;;;;1.08;0.30;;;;;;;;;;5370658;26;20027;-61
2024/04/16 03:04:17;;;;;;;1.85;0.63;;;;;;;;;;5363776;26;20019;-61
2024/04/16 03:06:48;;;;;;;1.65;0.20;;;;;;;;;;5375739;26;20075;-62
2024/04/16 03:09:13;;;;;;;0.20;0.20;;;;;;;;;;5358562;26;20066;-62
2024/04/16 03:11:41;;;;;;;0.20;0.20;;;;;;;;;;5391266;26;20015;-61
2024/04/16 03:14:07;;;;;;;0.20;0.20;;;;;;;;;;5362571;26;20069;-61
2024/04/16 03:16:36;;;;;;;1.10;0.30;;;;;;;;;;5333235;26;20012;-61
2024/04/16 03:19:01;;;;;;;2.10;0.50;;;;;;;;;;5331620;26;20033;-62
2024/04/16 03:21:29;;;;;;;0.20;0.20;;;;;;;;;;5335629;26;20079;-61
2024/04/16 03:23:58;;;;;;;0.30;0.30;;;;;;;;;;5318732;26;20013;-60
2024/04/16 03:26:26;;;;;;;1.10;0.28;;;;;;;;;;5350805;26;20015;-62
2024/04/16 03:28:52;;;;;;;0.98;0.38;;;;;;;;;;5340482;26;20004;-62
2024/04/16 03:31:23;;;;;;;1.48;0.35;;;;;;;;;;5346154;26;20044;-62
2024/04/16 03:33:48;;;;;;;0.47;0.28;;;;;;;;;;5338498;26;20341;-61
2024/04/16 03:36:16;;;;;;;0.55;0.25;;;;;;;;;;5416676;26;20016;-62
2024/04/16 03:38:45;;;;;;;1.60;0.20;;;;;;;;;;5368685;26;20027;-62
2024/04/16 03:41:17;;;;;;;1.20;0.40;;;;;;;;;;5368973;26;20016;-62
2024/04/16 03:43:43;;;;;;;2.92;0.50;;;;;;;;;;5358095;26;20053;-61
2024/04/16 03:46:11;;;;;;;1.02;0.38;;;;;;;;;;5375266;26;20016;-62
2024/04/16 03:48:37;;;;;;;1.25;0.50;;;;;;;;;;5350592;26;20066;-61
2024/04/16 03:51:05;;;;;;;1.65;0.40;;;;;;;;;;5344093;26;20017;-60
2024/04/16 03:53:31;;;;;;;2.33;0.40;;;;;;;;;;5337593;26;20029;-59
2024/04/16 03:56:00;;;;;;;3.92;0.38;;;;;;;;;;5364815;26;20004;-59
2024/04/16 03:58:29;;;;;;;;;;;;;;;;;;5374541;26;20027;-62
2024/04/16 04:01:03;;;;;;;1.08;0.35;;;;;;;;;;5371441;26;20055;-59
2024/04/16 04:03:32;;;;;;;0.63;0.25;;;;;;;;;;5362460;26;20011;-60
2024/04/16 04:06:00;;;;;;;;;;;;;;;;;;5362514;26;20008;-59
2024/04/16 04:08:26;;;;;;;1.83;0.47;;;;;;;;;;5383227;26;19926;-60
2024/04/16 04:10:57;;;;;;;1.20;0.45;;;;;;;;;;5375299;26;19995;-64
2024/04/16 04:13:23;;;;;;;0.77;0.40;;;;;;;;;;5365861;26;20004;-60
2024/04/16 04:15:56;;;;;;;1.67;0.40;;;;;;;;;;5370799;26;20015;-60
2024/04/16 04:18:21;;;;;;;2.72;0.55;;;;;;;;;;5376021;26;20000;-60
2024/04/16 04:20:50;;;;;;;1.10;0.45;;;;;;;;;;5378178;26;20008;-60
2024/04/16 04:23:15;;;;;;;1.08;0.47;;;;;;;;;;5372624;26;20016;-60
2024/04/16 04:25:45;;;;;;;1.35;0.28;;;;;;;;;;5361237;26;20015;-61
2024/04/16 04:28:10;;;;;;;2.20;0.60;;;;;;;;;;5368169;26;20148;-60
2024/04/16 04:30:39;;;;;;;1.20;0.50;;;;;;;;;;5365646;26;20015;-60
2024/04/16 04:33:07;;;;;;;0.57;0.45;;;;;;;;;;5368132;26;20000;-59
2024/04/16 04:35:36;;;;;;;3.78;0.60;;;;;;;;;;5377687;26;20003;-58
2024/04/16 04:38:01;;;;;;;6.22;1.80;;;;;;;;;;5375152;26;20000;-60
2024/04/16 04:40:30;;;;;;;7.30;2.42;;;;;;;;;;5368012;26;20008;-60
2024/04/16 04:42:59;;;;;;;2.20;0.50;;;;;;;;;;5372239;26;19996;-59
2024/04/16 04:45:27;;;;;;;0.85;0.50;;;;;;;;;;5343706;26;20016;-60
2024/04/16 04:47:53;;;;;;;3.88;0.65;;;;;;;;;;5371254;26;20004;-58
2024/04/16 04:50:24;;;;;;;8.70;1.20;;;;;;;;;;5372991;26;20019;-60
2024/04/16 04:52:50;;;;;;;3.05;0.77;;;;;;;;;;5375668;26;20130;-60
2024/04/16 04:55:21;;;;;;;4.70;0.45;;;;;;;;;;5327564;26;20017;-59
2024/04/16 04:57:48;;;;;;;2.72;0.60;;;;;;;;;;5331809;26;20001;-59
2024/04/16 05:00:16;;;;;;;6.22;0.50;;;;;;;;;;5353600;26;20076;-60
2024/04/16 05:02:42;;;;;;;0.45;0.40;;;;;;;;;;5340730;26;20016;-58
2024/04/16 05:05:10;;;;;;;1.30;0.60;;;;;;;;;;5368597;26;20003;-59
2024/04/16 05:07:39;;;;;;;5.35;0.73;;;;;;;;;;5343100;26;20004;-61
2024/04/16 05:10:08;;;;;;;1.30;0.40;;;;;;;;;;5323120;26;20083;-59
2024/04/16 05:12:34;;;;;;;5.47;1.55;;;;;;;;;;5327668;26;20089;-61
2024/04/16 05:15:02;;;;;;;2.35;0.90;;;;;;;;;;5377041;26;20427;-61
2024/04/16 05:17:28;;;;;;;2.90;1.10;;;;;;;;;;5385450;26;20108;-59
2024/04/16 05:19:57;;;;;;;1.77;0.90;;;;;;;;;;5361926;26;20008;-59
2024/04/16 05:22:23;;;;;;;1.40;0.57;;;;;;;;;;5388335;26;20007;-60
2024/04/16 05:24:54;;;;;;;3.75;1.15;;;;;;;;;;5373570;26;20011;-60
2024/04/16 05:27:22;;;;;;;3.33;0.55;;;;;;;;;;5388411;26;20102;-61
2024/04/16 05:29:50;;;;;;;;;;;;;;;;;;5385602;26;20007;-60
2024/04/16 05:32:16;;;;;;;1.38;0.82;;;;;;;;;;5367570;26;19933;-60
2024/04/16 05:34:44;;;;;;;0.43;0.43;;;;;;;;;;5374983;26;20020;-60
2024/04/16 05:37:10;;;;;;;0.77;0.28;;;;;;;;;;5369507;26;20000;-59
2024/04/16 05:39:39;;;;;;;1.95;0.50;;;;;;;;;;5368134;26;20004;-59
2024/04/16 05:42:07;;;;;;;2.10;0.68;;;;;;;;;;5368141;26;20016;-60
2024/04/16 05:44:36;;;;;;;1.17;0.50;;;;;;;;;;5365565;26;20004;-60
2024/04/16 05:47:02;;;;;;;1.55;0.30;;;;;;;;;;5366909;26;20091;-60
2024/04/16 05:49:38;;;;;;;1.33;0.52;;;;;;;;;;5374265;26;20004;-61
2024/04/16 05:52:04;;;;;;;1.40;0.82;;;;;;;;;;5394214;26;21256;-60
2024/04/16 05:54:34;;;;;;;0.63;0.50;;;;;;;;;;5368267;26;20004;-60
2024/04/16 05:57:08;;;;;;;3.42;0.95;;;;;;;;;;5394827;26;20019;-60
2024/04/16 05:59:38;;;;;;;1.75;0.50;;;;;;;;;;5385923;26;20019;-60
2024/04/16 06:02:04;;;;;;;2.97;0.95;;;;;;;;;;5390197;26;20014;-60
2024/04/16 06:04:32;;;;;;;2.42;0.90;;;;;;;;;;5346546;26;20132;-61
2024/04/16 06:06:58;;;;;;;3.53;0.60;;;;;;;;;;5327873;26;20001;-60
2024/04/16 06:09:26;;;;;;;1.52;0.60;;;;;;;;;;5332850;26;20127;-59
2024/04/16 06:11:52;;;;;;;6.70;1.75;;;;;;;;;;5320462;26;20078;-60
2024/04/16 06:14:22;;;;;;;2.00;0.75;;;;;;;;;;5362050;26;20012;-61
2024/04/16 06:16:48;;;;;;;4.80;0.90;;;;;;;;;;5350734;26;20013;-60
2024/04/16 06:19:16;;;;;;;2.28;0.70;;;;;;;;;;5356614;26;20012;-62
2024/04/16 06:21:44;;;;;;;1.13;0.50;;;;;;;;;;5341011;26;20001;-61
2024/04/16 06:24:14;;;;;;;4.97;1.10;;;;;;;;;;5324434;26;20021;-60
2024/04/16 06:26:40;;;;;;;1.75;0.73;;;;;;;;;;5342110;26;20005;-60
2024/04/16 06:39:55;;;;;;;4.47;1.20;;;;;;;;;;6363798;21;2485438;-61
2024/04/16 06:42:21;;;;;;;8.00;1.17;;;;;;;;;;6466136;22;20009;-62
2024/04/16 06:44:49;;;;;;;0.82;0.50;;;;;;;;;;6400103;22;20003;-64
2024/04/16 06:47:15;;;;;;;4.03;0.70;;;;;;;;;;6365859;22;19999;-61
2024/04/16 06:49:43;;;;;;;5.72;0.98;;;;;;;;;;6362966;22;20003;-62
2024/04/16 06:52:08;;;;;;;1.90;0.80;;;;;;;;;;6365502;22;20010;-62
2024/04/16 06:54:38;;;;;;;7.75;1.20;;;;;;;;;;6366827;22;19998;-62
2024/04/16 06:57:06;;;;;;;6.93;1.15;;;;;;;;;;6382842;22;20012;-62
2024/04/16 06:59:34;;;;;;;4.22;0.63;;;;;;;;;;6365285;22;20018;-64
2024/04/16 07:02:00;;;;;;;7.50;3.08;;;;;;;;;;6361694;22;22473;-62
2024/04/16 07:04:28;;;;;;;4.03;0.80;;;;;;;;;;6365673;22;19998;-63
2024/04/16 07:06:56;;;;;;;1.67;0.43;;;;;;;;;;6389306;22;20074;-62
2024/04/16 07:09:24;;;;;;;1.48;0.43;;;;;;;;;;6367200;22;20014;-64
2024/04/16 07:11:53;;;;;;;3.42;0.70;;;;;;;;;;6352694;22;20073;-62
2024/04/16 07:14:24;;;;;;;4.03;1.00;;;;;;;;;;6346138;22;19999;-62
2024/04/16 07:16:49;;;;;;;8.07;0.80;;;;;;;;;;6364364;22;19999;-64
2024/04/16 07:19:19;;;;;;;2.58;0.63;;;;;;;;;;6366582;22;20003;-63
2024/04/16 07:21:44;;;;;;;1.33;0.50;;;;;;;;;;6357954;22;20130;-62
2024/04/16 07:24:16;;;;;;;5.32;0.65;;;;;;;;;;6344428;22;20131;-62
2024/04/16 07:26:41;;;;;;;7.20;0.90;;;;;;;;;;6390917;22;20003;-63
2024/04/16 07:29:09;;;;;;;2.17;0.75;;;;;;;;;;6366707;22;19999;-63
2024/04/16 07:31:38;;;;;;;4.90;1.00;;;;;;;;;;6362712;22;20014;-64
2024/04/16 07:34:06;;;;;;;4.72;0.90;;;;;;;;;;6323489;22;20003;-63
2024/04/16 07:36:38;;;;;;;2.90;0.82;;;;;;;;;;6394276;22;19995;-63
2024/04/16 07:39:06;;;;;;;5.75;0.98;;;;;;;;;;6354883;22;19995;-62
2024/04/16 07:41:34;;;;;;;6.75;0.95;;;;;;;;;;6348216;22;20027;-63
2024/04/16 07:44:02;;;;;;;11.25;1.23;;;;;;;;;;6348825;22;20011;-63
2024/04/16 07:46:28;;;;;;;0.63;0.55;;;;;;;;;;6351357;22;20069;-64
2024/04/16 07:49:01;;;;;;;3.35;0.80;;;;;;;;;;6356450;22;20019;-64
2024/04/16 07:51:31;;;;;;;5.13;1.17;;;;;;;;;;6356418;22;19999;-68
2024/04/16 07:53:56;;;;;;;9.65;1.23;;;;;;;;;;6356182;22;19999;-64
2024/04/16 07:56:25;;;;;;;5.07;1.33;;;;;;;;;;6357419;22;20008;-63
2024/04/16 07:58:50;;;;;;;2.95;0.80;;;;;;;;;;6357526;22;20022;-62
2024/04/16 08:01:19;;;;;;;1.05;0.63;;;;;;;;;;6354955;22;20057;-63
2024/04/16 08:03:46;;;;;;;5.60;1.27;;;;;;;;;;6338595;22;20016;-63
2024/04/16 08:06:17;;;;;;;5.15;0.80;;;;;;;;;;6380344;22;20003;-64
2024/04/16 08:08:43;;;;;;;5.10;1.30;;;;;;;;;;6351420;22;20011;-62
2024/04/16 08:11:15;;;;;;;7.15;1.08;;;;;;;;;;6353285;22;20007;-62
2024/04/16 08:13:41;;;;;;;3.08;0.57;;;;;;;;;;6339638;22;20388;-65
2024/04/16 08:16:10;;;;;;;7.97;1.58;;;;;;;;;;6357437;22;20103;-64
2024/04/16 08:18:36;;;;;;;0.75;0.45;;;;;;;;;;6353453;22;19995;-64
2024/04/16 08:21:04;;;;;;;2.65;0.32;;;;;;;;;;6360502;22;20003;-66
2024/04/16 08:23:35;;;;;;;3.35;0.63;;;;;;;;;;6331428;22;20320;-63
2024/04/16 08:26:04;;;;;;;5.07;0.50;;;;;;;;;;6309550;22;20003;-63
2024/04/16 08:28:33;;;;;;;8.15;1.38;;;;;;;;;;6353566;22;19995;-61
2024/04/16 08:31:03;;;;;;;4.22;1.20;;;;;;;;;;6359119;22;20155;-61
2024/04/16 08:33:32;;;;;;;0.98;0.50;;;;;;;;;;6348891;22;20014;-64
2024/04/16 08:36:01;;;;;;;4.20;0.57;;;;;;;;;;6333846;22;19999;-63
2024/04/16 08:38:27;;;;;;;2.83;0.85;;;;;;;;;;6356175;22;20260;-64
2024/04/16 08:40:58;;;;;;;2.15;0.60;;;;;;;;;;6352710;22;20011;-62
2024/04/16 08:43:25;;;;;;;1.55;0.90;;;;;;;;;;6346745;22;19995;-63
2024/04/16 08:45:55;;;;;;;0.82;0.43;;;;;;;;;;6372432;22;20002;-64
2024/04/16 08:48:22;;;;;;;8.02;1.00;;;;;;;;;;6346522;22;20006;-64
2024/04/16 08:50:52;;;;;;;2.58;0.65;;;;;;;;;;6351721;22;20036;-64
2024/04/16 08:53:24;;;;;;;3.50;0.80;;;;;;;;;;6349144;22;20079;-63
2024/04/16 08:55:53;;;;;;;2.17;0.40;;;;;;;;;;6340421;22;20018;-65
2024/04/16 08:58:21;;;;;;;5.15;0.75;;;;;;;;;;6358225;22;20003;-63
2024/04/16 09:00:50;;;;;;;3.08;0.73;;;;;;;;;;6355578;22;20095;-62
2024/04/16 09:03:20;;;;;;;3.13;0.47;;;;;;;;;;6355058;22;20011;-63
2024/04/16 09:05:49;;;;;;;2.83;0.60;;;;;;;;;;6360748;22;20108;-60
2024/04/16 09:08:15;;;;;;;2.05;0.55;;;;;;;;;;6358388;22;20020;-65
2024/04/16 09:10:43;;;;;;;7.15;0.95;;;;;;;;;;6356151;22;20014;-61
2024/04/16 09:13:10;;;;;;;4.15;0.55;;;;;;;;;;6353686;22;19999;-63
2024/04/16 09:15:42;;;;;;;3.90;0.90;;;;;;;;;;6324213;22;20016;-60
2024/04/16 09:18:08;;;;;;;4.53;0.73;;;;;;;;;;6360074;22;20090;-61
2024/04/16 09:20:39;;;;;;;4.93;1.00;;;;;;;;;;6352291;22;20035;-61
2024/04/16 09:23:11;;;;;;;1.55;0.68;;;;;;;;;;6354952;22;19999;-62
2024/04/16 09:25:41;;;;;;;1.50;0.47;;;;;;;;;;6347300;22;20003;-61
2024/04/16 09:28:07;;;;;;;4.38;0.50;;;;;;;;;;6360202;22;20014;-62
2024/04/16 09:30:35;;;;;;;2.13;0.50;;;;;;;;;;6355572;22;20003;-62
2024/04/16 09:33:04;;;;;;;2.65;0.50;;;;;;;;;;6353600;22;19999;-61
2024/04/16 09:35:34;;;;;;;;;;;;;;;;;;6348198;22;19999;-62
2024/04/16 09:38:00;;;;;;;1.48;0.55;;;;;;;;;;6353352;22;19931;-61
2024/04/16 09:40:30;;;;;;;2.67;0.82;;;;;;;;;;6357923;22;20007;-62
2024/04/16 09:42:57;;;;;;;5.57;1.77;;;;;;;;;;6354694;22;19999;-62
2024/04/16 09:45:26;;;;;;;8.63;2.78;;;;;;;;;;6359401;22;19994;-61
2024/04/16 09:47:53;;;;;;;3.63;0.90;;;;;;;;;;6361099;22;20078;-64
2024/04/16 09:50:27;;;;;;;14.73;4.35;;;;;;;;;;6355861;22;20007;-61
2024/04/16 09:52:54;;;;;;;12.40;3.17;;;;;;;;;;6354679;22;19995;-64
2024/04/16 09:55:26;;;;;;;8.77;2.53;;;;;;;;;;6347382;22;19995;-63
2024/04/16 09:57:52;;;;;;;2.60;1.15;;;;;;;;;;6366306;22;20029;-63
2024/04/16 10:00:22;;;;;;;5.65;1.77;;;;;;;;;;6360486;22;20106;-62
2024/04/16 10:02:47;;;;;;;5.35;1.20;;;;;;;;;;6354982;22;20007;-64
2024/04/16 10:05:21;;;;;;;10.13;1.60;;;;;;;;;;6336813;22;19999;-62
2024/04/16 10:07:49;;;;;;;3.53;1.17;;;;;;;;;;6358960;22;20059;-61
2024/04/16 10:10:20;;;;;;;9.93;2.22;;;;;;;;;;6353001;22;20007;-62
2024/04/16 10:12:46;;;;;;;4.22;1.20;;;;;;;;;;6353884;22;20014;-61
2024/04/16 10:15:15;;;;;;;10.45;2.95;;;;;;;;;;6336342;22;19999;-62
2024/04/16 10:17:51;;;;;;;4.10;1.33;;;;;;;;;;6348880;22;20010;-64
2024/04/16 10:20:23;;;;;;;6.80;2.67;;;;;;;;;;6348102;22;20007;-62
2024/04/16 10:22:55;;;;;;;19.50;4.22;;;;;;;;;;6354285;22;19995;-62
2024/04/16 10:25:32;;;;;;;13.82;5.72;;;;;;;;;;6346438;22;20003;-62
2024/04/16 10:27:59;;;;;;;3.50;1.55;;;;;;;;;;6348992;22;20003;-63
2024/04/16 10:30:33;;;;;;;7.90;2.47;;;;;;;;;;6350978;22;20138;-63
2024/04/16 10:32:59;;;;;;;15.35;2.70;;;;;;;;;;6351748;22;20039;-62
2024/04/16 10:35:28;;;;;;;9.27;4.15;;;;;;;;;;6329955;22;20067;-62
2024/04/16 10:37:57;;;;;;;11.30;3.97;;;;;;;;;;6354466;22;20025;-64
2024/04/16 10:40:28;;;;;;;10.10;3.00;;;;;;;;;;6353363;22;20111;-62
2024/04/16 10:42:54;;;;;;;8.15;2.78;;;;;;;;;;6354872;22;20073;-63
2024/04/16 10:45:24;;;;;;;7.30;2.40;;;;;;;;;;6344106;22;20024;-63
2024/04/16 10:47:51;;;;;;;6.25;2.05;;;;;;;;;;6358387;22;20095;-62
2024/04/16 10:50:20;;;;;;;9.20;3.83;;;;;;;;;;6356736;22;20007;-62
2024/04/16 10:52:45;;;;;;;10.73;4.38;;;;;;;;;;6357268;22;19999;-63
2024/04/16 10:55:19;;;;;;;20.00;8.02;;;;;;;;;;6355723;22;19995;-64
2024/04/16 10:57:45;;;;;;;4.03;1.90;;;;;;;;;;6359268;22;20000;-62
2024/04/16 11:00:16;;;;;;;4.85;2.10;;;;;;;;;;6354301;22;20055;-63
2024/04/16 11:02:42;;;;;;;9.23;2.33;;;;;;;;;;6358866;22;20014;-61
2024/04/16 11:05:21;;;;;;;3.75;1.52;;;;;;;;;;6351598;22;20031;-63
2024/04/16 11:07:47;;;;;;;2.97;1.42;;;;;;;;;;6353978;22;20018;-62
2024/04/16 11:10:25;;;;;;;7.30;1.35;;;;;;;;;;6360095;22;20023;-63
2024/04/16 11:12:54;;;;;;;;;;;;;;;;;;6356669;22;20006;-64
2024/04/16 11:15:23;;;;;;;3.60;0.85;;;;;;;;;;6295964;22;19935;-62
2024/04/16 11:17:49;;;;;;;5.55;0.98;;;;;;;;;;6310201;22;20018;-62
2024/04/16 11:20:19;;;;;;;3.65;0.93;;;;;;;;;;6310490;22;20018;-62
2024/04/16 11:22:45;;;;;;;4.05;0.70;;;;;;;;;;6311315;22;20133;-63
2024/04/16 11:25:25;;;;;;;2.20;0.82;;;;;;;;;;6293410;22;20404;-63
2024/04/16 11:27:50;;;;;;;3.45;1.00;;;;;;;;;;6336438;22;19999;-62
2024/04/16 11:30:21;;;;;;;2.60;0.73;;;;;;;;;;6356059;22;20038;-62
2024/04/16 11:32:47;;;;;;;0.88;0.43;;;;;;;;;;6357261;22;19995;-64
2024/04/16 11:35:17;;;;;;;5.00;1.08;;;;;;;;;;6350731;22;20010;-64
2024/04/16 11:37:44;;;;;;;1.20;0.70;;;;;;;;;;6347574;22;20015;-64
2024/04/16 11:40:13;;;;;;;4.15;0.80;;;;;;;;;;6356889;22;19996;-62
2024/04/16 11:42:45;;;;;;;3.22;0.70;;;;;;;;;;6355584;22;20019;-63
2024/04/16 11:45:14;;;;;;;0.90;0.50;;;;;;;;;;6348634;22;20015;-64
2024/04/16 11:47:40;;;;;;;1.27;0.60;;;;;;;;;;6352041;22;19999;-64
2024/04/16 11:50:09;;;;;;;1.92;0.80;;;;;;;;;;6353520;22;20014;-63
2024/04/16 11:52:35;;;;;;;1.40;0.60;;;;;;;;;;6356625;22;19999;-62
2024/04/16 11:55:05;;;;;;;4.05;1.15;;;;;;;;;;6363652;22;20013;-63
2024/04/16 11:57:30;;;;;;;1.02;0.75;;;;;;;;;;6365402;22;20061;-64
2024/04/16 12:00:02;;;;;;;0.70;0.47;;;;;;;;;;6357998;22;20077;-62
2024/04/16 12:02:27;;;;;;;1.95;0.80;;;;;;;;;;6359061;22;20007;-63
2024/04/16 12:04:56;;;;;;;4.18;1.00;;;;;;;;;;6325941;22;20011;-62
2024/04/16 12:07:21;;;;;;;0.60;0.38;;;;;;;;;;6354410;22;20014;-64
2024/04/16 12:09:50;;;;;;;5.03;0.80;;;;;;;;;;6356858;22;20027;-65
2024/04/16 12:12:15;;;;;;;3.08;0.90;;;;;;;;;;6357113;22;20010;-64
2024/04/16 12:14:44;;;;;;;2.03;0.47;;;;;;;;;;6349998;22;20011;-65
2024/04/16 12:17:12;;;;;;;2.03;0.50;;;;;;;;;;6358724;22;20365;-64
2024/04/16 12:19:41;;;;;;;0.75;0.57;;;;;;;;;;6349754;22;20007;-62
2024/04/16 12:22:06;;;;;;;;;;;;;;;;;;6356434;22;19999;-63
2024/04/16 12:24:35;;;;;;;2.55;0.75;;;;;;;;;;6351084;22;19972;-64
2024/04/16 12:27:01;;;;;;;4.57;1.08;;;;;;;;;;6353756;22;20004;-64
2024/04/16 12:29:29;;;;;;;1.42;0.80;;;;;;;;;;6343609;22;20094;-65
2024/04/16 12:31:55;;;;;;;4.32;1.63;;;;;;;;;;6356351;22;19999;-66
2024/04/16 12:34:26;;;;;;;5.22;1.90;;;;;;;;;;6352389;22;20055;-64
2024/04/16 12:36:52;;;;;;;3.28;0.60;;;;;;;;;;6357903;22;20011;-63
2024/04/16 12:39:20;;;;;;;2.40;0.93;;;;;;;;;;6352586;22;20078;-64
2024/04/16 12:41:47;;;;;;;2.20;0.70;;;;;;;;;;6356685;22;20014;-64
2024/04/16 12:44:15;;;;;;;2.22;1.13;;;;;;;;;;6335710;22;20011;-65
2024/04/16 12:46:40;;;;;;;1.55;0.68;;;;;;;;;;6353736;22;20006;-64
2024/04/16 12:49:09;;;;;;;1.27;0.50;;;;;;;;;;6360041;22;20011;-66
2024/04/16 12:51:37;;;;;;;0.95;0.47;;;;;;;;;;6354132;22;20014;-62
2024/04/16 12:54:06;;;;;;;3.00;0.60;;;;;;;;;;6351453;22;20018;-64
2024/04/16 12:56:32;;;;;;;5.47;0.70;;;;;;;;;;6356945;22;20018;-64
2024/04/16 12:59:00;;;;;;;3.83;0.70;;;;;;;;;;6359868;22;20007;-64
2024/04/16 13:01:26;;;;;;;1.05;0.52;;;;;;;;;;6351460;22;19996;-63
2024/04/16 13:03:54;;;;;;;2.97;0.60;;;;;;;;;;6356293;22;20017;-62
2024/04/16 13:06:20;;;;;;;0.55;0.38;;;;;;;;;;6350226;22;20109;-62
2024/04/16 13:08:53;;;;;;;2.63;0.55;;;;;;;;;;6355085;22;20007;-64
2024/04/16 13:11:19;;;;;;;2.55;0.40;;;;;;;;;;6347339;22;19999;-62
2024/04/16 13:13:51;;;;;;;0.85;0.47;;;;;;;;;;6353402;22;20013;-63
2024/04/16 13:16:16;;;;;;;1.40;0.70;;;;;;;;;;6362388;22;19994;-65
2024/04/16 13:18:45;;;;;;;2.42;0.55;;;;;;;;;;6354155;22;20014;-64
2024/04/16 13:21:10;;;;;;;0.80;0.30;;;;;;;;;;6356510;22;20003;-63
2024/04/16 13:23:39;;;;;;;1.42;0.60;;;;;;;;;;6349559;22;20037;-63
2024/04/16 13:26:07;;;;;;;0.47;0.40;;;;;;;;;;6348634;22;19999;-63
2024/04/16 13:28:36;;;;;;;3.35;0.95;;;;;;;;;;6354499;22;20427;-65
2024/04/16 13:31:02;;;;;;;4.20;0.70;;;;;;;;;;6351225;22;20003;-64
2024/04/16 13:33:31;;;;;;;2.20;0.60;;;;;;;;;;6349035;22;20043;-62
2024/04/16 13:35:57;;;;;;;2.15;0.60;;;;;;;;;;6334417;22;19999;-63
2024/04/16 13:38:27;;;;;;;3.28;0.63;;;;;;;;;;6358610;22;20018;-63
2024/04/16 13:40:53;;;;;;;9.70;0.80;;;;;;;;;;6354288;22;20014;-65
2024/04/16 13:43:25;;;;;;;0.85;0.50;;;;;;;;;;6346011;22;20015;-65
2024/04/16 13:45:50;;;;;;;2.45;0.57;;;;;;;;;;6348119;22;20033;-63
2024/04/16 13:48:19;;;;;;;2.63;0.75;;;;;;;;;;6357777;22;20007;-64
2024/04/16 13:50:45;;;;;;;3.08;0.88;;;;;;;;;;6356063;22;19996;-65
2024/04/16 13:53:13;;;;;;;3.72;0.50;;;;;;;;;;6354230;22;20019;-66
2024/04/16 13:55:39;;;;;;;4.93;0.90;;;;;;;;;;6360806;22;20132;-63
2024/04/16 13:58:09;;;;;;;1.00;0.50;;;;;;;;;;6362985;22;20056;-64
2024/04/16 14:00:37;;;;;;;5.18;0.73;;;;;;;;;;6355120;22;20003;-64
2024/04/16 14:03:06;;;;;;;1.10;0.63;;;;;;;;;;6354058;22;20056;-65
2024/04/16 14:05:32;;;;;;;1.98;1.00;;;;;;;;;;6313596;22;20100;-65
2024/04/16 14:08:02;;;;;;;0.68;0.57;;;;;;;;;;6305900;22;20007;-64
2024/04/16 14:10:31;;;;;;;3.08;0.82;;;;;;;;;;6306462;22;20010;-65
2024/04/16 14:12:59;;;;;;;0.50;0.50;;;;;;;;;;6306478;22;20016;-64
2024/04/16 14:15:25;;;;;;;1.30;0.73;;;;;;;;;;6321597;22;20007;-64
2024/04/16 14:17:56;;;;;;;4.22;0.90;;;;;;;;;;6354222;22;20007;-64
2024/04/16 14:20:21;;;;;;;4.10;1.65;;;;;;;;;;6354320;22;20105;-64
2024/04/16 14:22:50;;;;;;;10.30;3.70;;;;;;;;;;6360993;22;20015;-63
2024/04/16 14:25:16;;;;;;;1.67;0.75;;;;;;;;;;6335291;22;20040;-64
2024/04/16 14:27:44;;;;;;;2.70;1.00;;;;;;;;;;6352359;22;20015;-63
2024/04/16 14:30:10;;;;;;;3.60;1.25;;;;;;;;;;6354006;22;20010;-63
2024/04/16 14:32:38;;;;;;;2.40;0.93;;;;;;;;;;6353607;22;20019;-63
2024/04/16 14:35:11;;;;;;;1.83;0.82;;;;;;;;;;6351322;22;19995;-62
2024/04/16 14:37:39;;;;;;;0.95;0.75;;;;;;;;;;6355338;22;20018;-64
2024/04/16 14:40:10;;;;;;;3.33;1.02;;;;;;;;;;6355186;22;20006;-65
2024/04/16 14:42:40;;;;;;;5.70;0.93;;;;;;;;;;6353549;22;20827;-64
2024/04/16 14:45:06;;;;;;;2.08;1.02;;;;;;;;;;6344798;22;20053;-65
2024/04/16 14:47:34;;;;;;;3.50;0.85;;;;;;;;;;6366170;22;20007;-63
2024/04/16 14:50:03;;;;;;;0.80;0.52;;;;;;;;;;6358689;22;20056;-64
2024/04/16 14:52:34;;;;;;;3.90;1.20;;;;;;;;;;6355825;22;20015;-63
2024/04/16 14:55:02;;;;;;;3.17;1.10;;;;;;;;;;6337485;22;19995;-65
2024/04/16 14:57:30;;;;;;;4.32;1.30;;;;;;;;;;6345563;22;19995;-64
2024/04/16 14:59:56;;;;;;;;;;;;;;;;;;6357790;22;19999;-63
2024/04/16 15:02:24;;;;;;;1.58;0.80;;;;;;;;;;6357265;22;19924;-63